sensor_id;sensor_type;location;lat;lon;timestamp;temperature;humidity
13798;DHT22;6970;51.340;3.240;2023-03-01T00:01:11;4.60;99.90
13798;DHT22;6970;51.340;3.240;2023-03-01T00:03:38;4.60;99.90
13798;DHT22;6970;51.340;3.240;2023-03-01T00:06:06;4.60;99.90
13798;DHT22;6970;51.340;3.240;2023-03-01T00:08:33;4.60;99.90
13798;DHT22;6970;51.340;3.240;2023-03-01T00:11:24;4.50;99.90
13798;DHT22;6970;51.340;3.240;2023-03-01T00:13:54;4.50;99.90
13798;DHT22;6970;51.340;3.240;2023-03-01T00:16:30;4.50;99.90
13798;DHT22;6970;51.340;3.240;2023-03-01T00:18:59;4.50;99.90
13798;DHT22;6970;51.340;3.240;2023-03-01T00:21:27;4.50;99.90
13798;DHT22;6970;51.340;3.240;2023-03-01T00:23:55;4.50;99.90
13798;DHT22;6970;51.340;3.240;2023-03-01T00:26:24;4.50;99.90
13798;DHT22;6970;51.340;3.240;2023-03-01T00:28:51;4.50;99.90
13798;DHT22;6970;51.340;3.240;2023-03-01T00:31:22;4.50;99.90
13798;DHT22;6970;51.340;3.240;2023-03-01T00:33:55;4.50;99.90
13798;DHT22;6970;51.340;3.240;2023-03-01T00:36:28;4.40;99.90
13798;DHT22;6970;51.340;3.240;2023-03-01T00:38:56;4.40;99.90
13798;DHT22;6970;51.340;3.240;2023-03-01T00:41:24;4.40;99.90
13798;DHT22;6970;51.340;3.240;2023-03-01T00:43:54;4.30;99.90
13798;DHT22;6970;51.340;3.240;2023-03-01T00:46:26;4.30;99.90
13798;DHT22;6970;51.340;3.240;2023-03-01T00:48:53;4.30;99.90
13798;DHT22;6970;51.340;3.240;2023-03-01T00:51:30;4.30;99.90
13798;DHT22;6970;51.340;3.240;2023-03-01T00:54:00;4.30;99.90
13798;DHT22;6970;51.340;3.240;2023-03-01T00:56:28;4.30;99.90
13798;DHT22;6970;51.340;3.240;2023-03-01T00:58:56;4.30;99.90
13798;DHT22;6970;51.340;3.240;2023-03-01T01:01:26;4.20;99.90
13798;DHT22;6970;51.340;3.240;2023-03-01T01:03:57;4.20;99.90
13798;DHT22;6970;51.340;3.240;2023-03-01T01:06:26;4.20;99.90
13798;DHT22;6970;51.340;3.240;2023-03-01T01:08:55;4.20;99.90
13798;DHT22;6970;51.340;3.240;2023-03-01T01:11:26;4.20;99.90
13798;DHT22;6970;51.340;3.240;2023-03-01T01:13:54;4.20;99.90
13798;DHT22;6970;51.340;3.240;2023-03-01T01:16:23;4.20;99.90
13798;DHT22;6970;51.340;3.240;2023-03-01T01:18:51;4.20;99.90
13798;DHT22;6970;51.340;3.240;2023-03-01T01:21:20;4.20;99.90
13798;DHT22;6970;51.340;3.240;2023-03-01T01:23:47;4.10;99.90
13798;DHT22;6970;51.340;3.240;2023-03-01T01:26:24;4.10;99.90
13798;DHT22;6970;51.340;3.240;2023-03-01T01:28:51;4.10;99.90
13798;DHT22;6970;51.340;3.240;2023-03-01T01:31:19;4.10;99.90
13798;DHT22;6970;51.340;3.240;2023-03-01T01:33:46;4.10;99.90
13798;DHT22;6970;51.340;3.240;2023-03-01T01:36:13;4.10;99.90
13798;DHT22;6970;51.340;3.240;2023-03-01T01:38:40;4.00;99.90
13798;DHT22;6970;51.340;3.240;2023-03-01T01:41:10;4.00;99.90
13798;DHT22;6970;51.340;3.240;2023-03-01T01:43:44;4.00;99.90
13798;DHT22;6970;51.340;3.240;2023-03-01T01:46:30;4.00;99.90
13798;DHT22;6970;51.340;3.240;2023-03-01T01:49:03;4.00;99.90
13798;DHT22;6970;51.340;3.240;2023-03-01T01:51:42;4.00;99.90
13798;DHT22;6970;51.340;3.240;2023-03-01T01:54:28;4.00;99.90
13798;DHT22;6970;51.340;3.240;2023-03-01T01:57:00;4.00;99.90
13798;DHT22;6970;51.340;3.240;2023-03-01T01:59:29;4.00;99.90
13798;DHT22;6970;51.340;3.240;2023-03-01T02:02:00;4.00;99.90
13798;DHT22;6970;51.340;3.240;2023-03-01T02:04:29;4.00;99.90
13798;DHT22;6970;51.340;3.240;2023-03-01T02:07:06;4.00;99.90
13798;DHT22;6970;51.340;3.240;2023-03-01T02:09:35;4.00;99.90
13798;DHT22;6970;51.340;3.240;2023-03-01T02:12:04;4.00;99.90
13798;DHT22;6970;51.340;3.240;2023-03-01T02:14:31;4.00;99.90
13798;DHT22;6970;51.340;3.240;2023-03-01T02:16:58;4.00;99.90
13798;DHT22;6970;51.340;3.240;2023-03-01T02:19:43;4.00;99.90
13798;DHT22;6970;51.340;3.240;2023-03-01T02:22:31;4.00;99.90
13798;DHT22;6970;51.340;3.240;2023-03-01T02:25:33;3.90;99.90
13798;DHT22;6970;51.340;3.240;2023-03-01T02:30:47;3.90;99.90
13798;DHT22;6970;51.340;3.240;2023-03-01T02:33:35;3.90;99.90
13798;DHT22;6970;51.340;3.240;2023-03-01T02:36:17;3.90;99.90
13798;DHT22;6970;51.340;3.240;2023-03-01T02:38:44;3.90;99.90
13798;DHT22;6970;51.340;3.240;2023-03-01T02:41:14;3.90;99.90
13798;DHT22;6970;51.340;3.240;2023-03-01T02:43:42;3.90;99.90
13798;DHT22;6970;51.340;3.240;2023-03-01T02:46:24;3.90;99.90
13798;DHT22;6970;51.340;3.240;2023-03-01T02:48:54;3.90;99.90
13798;DHT22;6970;51.340;3.240;2023-03-01T02:54:30;3.90;99.90
13798;DHT22;6970;51.340;3.240;2023-03-01T02:56:58;3.90;99.90
13798;DHT22;6970;51.340;3.240;2023-03-01T02:59:30;3.90;99.90
13798;DHT22;6970;51.340;3.240;2023-03-01T03:01:57;3.90;99.90
13798;DHT22;6970;51.340;3.240;2023-03-01T03:04:26;3.90;99.90
13798;DHT22;6970;51.340;3.240;2023-03-01T03:06:53;3.90;99.90
13798;DHT22;6970;51.340;3.240;2023-03-01T03:09:20;3.90;99.90
13798;DHT22;6970;51.340;3.240;2023-03-01T03:11:47;3.90;99.90
13798;DHT22;6970;51.340;3.240;2023-03-01T03:14:16;3.90;99.90
13798;DHT22;6970;51.340;3.240;2023-03-01T03:16:46;3.90;99.90
13798;DHT22;6970;51.340;3.240;2023-03-01T03:19:15;3.90;99.90
13798;DHT22;6970;51.340;3.240;2023-03-01T03:21:43;4.00;99.90
13798;DHT22;6970;51.340;3.240;2023-03-01T03:24:10;4.00;99.90
13798;DHT22;6970;51.340;3.240;2023-03-01T03:26:37;4.00;99.90
13798;DHT22;6970;51.340;3.240;2023-03-01T03:29:04;4.00;99.90
13798;DHT22;6970;51.340;3.240;2023-03-01T03:31:31;4.00;99.90
13798;DHT22;6970;51.340;3.240;2023-03-01T03:33:59;4.00;99.90
13798;DHT22;6970;51.340;3.240;2023-03-01T03:36:25;4.00;99.90
13798;DHT22;6970;51.340;3.240;2023-03-01T03:38:52;4.00;99.90
13798;DHT22;6970;51.340;3.240;2023-03-01T03:41:20;4.10;99.90
13798;DHT22;6970;51.340;3.240;2023-03-01T03:43:47;4.00;99.90
13798;DHT22;6970;51.340;3.240;2023-03-01T03:46:15;4.10;99.90
13798;DHT22;6970;51.340;3.240;2023-03-01T03:48:44;4.10;99.90
13798;DHT22;6970;51.340;3.240;2023-03-01T03:51:14;4.00;99.90
13798;DHT22;6970;51.340;3.240;2023-03-01T03:53:42;4.10;99.90
13798;DHT22;6970;51.340;3.240;2023-03-01T03:56:09;4.10;99.90
13798;DHT22;6970;51.340;3.240;2023-03-01T03:58:38;4.00;99.90
13798;DHT22;6970;51.340;3.240;2023-03-01T04:01:06;4.00;99.90
13798;DHT22;6970;51.340;3.240;2023-03-01T04:03:33;4.00;99.90
13798;DHT22;6970;51.340;3.240;2023-03-01T04:06:02;4.00;99.90
13798;DHT22;6970;51.340;3.240;2023-03-01T04:08:29;4.00;99.90
13798;DHT22;6970;51.340;3.240;2023-03-01T04:11:04;4.00;99.90
13798;DHT22;6970;51.340;3.240;2023-03-01T04:13:53;4.00;99.90
13798;DHT22;6970;51.340;3.240;2023-03-01T04:16:21;4.00;99.90
13798;DHT22;6970;51.340;3.240;2023-03-01T04:18:48;4.00;99.90
13798;DHT22;6970;51.340;3.240;2023-03-01T04:21:15;4.00;99.90
13798;DHT22;6970;51.340;3.240;2023-03-01T04:23:42;4.00;99.90
13798;DHT22;6970;51.340;3.240;2023-03-01T04:26:09;4.00;99.90
13798;DHT22;6970;51.340;3.240;2023-03-01T04:28:39;4.00;99.90
13798;DHT22;6970;51.340;3.240;2023-03-01T04:31:10;4.00;99.90
13798;DHT22;6970;51.340;3.240;2023-03-01T04:33:50;4.00;99.90
13798;DHT22;6970;51.340;3.240;2023-03-01T04:36:25;4.00;99.90
13798;DHT22;6970;51.340;3.240;2023-03-01T04:38:52;4.00;99.90
13798;DHT22;6970;51.340;3.240;2023-03-01T04:41:22;4.00;99.90
13798;DHT22;6970;51.340;3.240;2023-03-01T04:43:49;4.00;99.90
13798;DHT22;6970;51.340;3.240;2023-03-01T04:46:19;3.90;99.90
13798;DHT22;6970;51.340;3.240;2023-03-01T04:48:47;3.90;99.90
13798;DHT22;6970;51.340;3.240;2023-03-01T04:51:14;3.90;99.90
13798;DHT22;6970;51.340;3.240;2023-03-01T04:53:43;3.90;99.90
13798;DHT22;6970;51.340;3.240;2023-03-01T04:56:10;3.90;99.90
13798;DHT22;6970;51.340;3.240;2023-03-01T04:58:37;3.90;99.90
13798;DHT22;6970;51.340;3.240;2023-03-01T05:01:16;3.90;99.90
13798;DHT22;6970;51.340;3.240;2023-03-01T05:03:46;3.80;99.90
13798;DHT22;6970;51.340;3.240;2023-03-01T05:06:14;3.80;99.90
13798;DHT22;6970;51.340;3.240;2023-03-01T05:08:42;3.80;99.90
13798;DHT22;6970;51.340;3.240;2023-03-01T05:11:10;3.80;99.90
13798;DHT22;6970;51.340;3.240;2023-03-01T05:13:38;3.70;99.90
13798;DHT22;6970;51.340;3.240;2023-03-01T05:16:06;3.70;99.90
13798;DHT22;6970;51.340;3.240;2023-03-01T05:18:39;3.70;99.90
13798;DHT22;6970;51.340;3.240;2023-03-01T05:21:09;3.70;99.90
13798;DHT22;6970;51.340;3.240;2023-03-01T05:23:37;3.70;99.90
13798;DHT22;6970;51.340;3.240;2023-03-01T05:26:06;3.70;99.90
13798;DHT22;6970;51.340;3.240;2023-03-01T05:28:37;3.60;99.90
13798;DHT22;6970;51.340;3.240;2023-03-01T05:31:04;3.60;99.90
13798;DHT22;6970;51.340;3.240;2023-03-01T05:33:40;3.60;99.90
13798;DHT22;6970;51.340;3.240;2023-03-01T05:36:08;3.60;99.90
13798;DHT22;6970;51.340;3.240;2023-03-01T05:38:36;3.60;99.90
13798;DHT22;6970;51.340;3.240;2023-03-01T05:41:03;3.60;99.90
13798;DHT22;6970;51.340;3.240;2023-03-01T05:43:31;3.60;99.90
13798;DHT22;6970;51.340;3.240;2023-03-01T05:46:01;3.50;99.90
13798;DHT22;6970;51.340;3.240;2023-03-01T05:48:29;3.50;99.90
13798;DHT22;6970;51.340;3.240;2023-03-01T05:50:59;3.50;99.90
13798;DHT22;6970;51.340;3.240;2023-03-01T05:53:27;3.50;99.90
13798;DHT22;6970;51.340;3.240;2023-03-01T05:55:54;3.40;99.90
13798;DHT22;6970;51.340;3.240;2023-03-01T05:58:20;3.50;99.90
13798;DHT22;6970;51.340;3.240;2023-03-01T06:00:48;3.40;99.90
13798;DHT22;6970;51.340;3.240;2023-03-01T06:03:17;3.40;99.90
13798;DHT22;6970;51.340;3.240;2023-03-01T06:05:44;3.40;99.90
13798;DHT22;6970;51.340;3.240;2023-03-01T06:08:12;3.40;99.90
13798;DHT22;6970;51.340;3.240;2023-03-01T06:10:39;3.40;99.90
13798;DHT22;6970;51.340;3.240;2023-03-01T06:13:07;3.40;99.90
13798;DHT22;6970;51.340;3.240;2023-03-01T06:15:34;3.40;99.90
13798;DHT22;6970;51.340;3.240;2023-03-01T06:18:01;3.40;99.90
13798;DHT22;6970;51.340;3.240;2023-03-01T06:20:29;3.40;99.90
13798;DHT22;6970;51.340;3.240;2023-03-01T06:22:56;3.40;99.90
13798;DHT22;6970;51.340;3.240;2023-03-01T06:25:25;3.40;99.90
13798;DHT22;6970;51.340;3.240;2023-03-01T06:27:53;3.30;99.90
13798;DHT22;6970;51.340;3.240;2023-03-01T06:30:21;3.40;99.90
13798;DHT22;6970;51.340;3.240;2023-03-01T06:32:49;3.40;99.90
13798;DHT22;6970;51.340;3.240;2023-03-01T06:35:17;3.40;99.90
13798;DHT22;6970;51.340;3.240;2023-03-01T06:37:45;3.40;99.90
13798;DHT22;6970;51.340;3.240;2023-03-01T06:40:13;3.50;99.90
13798;DHT22;6970;51.340;3.240;2023-03-01T06:42:43;3.50;99.90
13798;DHT22;6970;51.340;3.240;2023-03-01T06:45:14;3.50;99.90
13798;DHT22;6970;51.340;3.240;2023-03-01T06:47:41;3.50;99.90
13798;DHT22;6970;51.340;3.240;2023-03-01T06:50:09;3.60;99.90
13798;DHT22;6970;51.340;3.240;2023-03-01T06:52:36;3.60;99.90
13798;DHT22;6970;51.340;3.240;2023-03-01T06:55:04;3.70;99.90
13798;DHT22;6970;51.340;3.240;2023-03-01T06:57:31;3.70;99.90
13798;DHT22;6970;51.340;3.240;2023-03-01T06:59:58;3.70;99.90
13798;DHT22;6970;51.340;3.240;2023-03-01T07:02:25;3.80;99.90
13798;DHT22;6970;51.340;3.240;2023-03-01T07:04:52;4.30;99.90
13798;DHT22;6970;51.340;3.240;2023-03-01T07:07:19;5.50;99.90
13798;DHT22;6970;51.340;3.240;2023-03-01T07:09:49;6.80;99.90
13798;DHT22;6970;51.340;3.240;2023-03-01T07:12:16;8.20;99.90
13798;DHT22;6970;51.340;3.240;2023-03-01T07:14:43;9.30;97.50
13798;DHT22;6970;51.340;3.240;2023-03-01T07:17:10;10.50;95.30
13798;DHT22;6970;51.340;3.240;2023-03-01T07:19:37;11.50;92.90
13798;DHT22;6970;51.340;3.240;2023-03-01T07:22:04;12.30;90.80
13798;DHT22;6970;51.340;3.240;2023-03-01T07:24:34;12.90;88.70
13798;DHT22;6970;51.340;3.240;2023-03-01T07:27:02;13.60;84.70
13798;DHT22;6970;51.340;3.240;2023-03-01T07:29:29;14.20;84.00
13798;DHT22;6970;51.340;3.240;2023-03-01T07:31:56;15.10;81.70
13798;DHT22;6970;51.340;3.240;2023-03-01T07:34:23;15.90;79.00
13798;DHT22;6970;51.340;3.240;2023-03-01T07:36:50;16.50;74.00
13798;DHT22;6970;51.340;3.240;2023-03-01T07:39:17;16.90;72.30
13798;DHT22;6970;51.340;3.240;2023-03-01T07:41:45;17.40;70.90
13798;DHT22;6970;51.340;3.240;2023-03-01T07:44:12;17.80;67.80
13798;DHT22;6970;51.340;3.240;2023-03-01T07:46:39;18.10;66.60
13798;DHT22;6970;51.340;3.240;2023-03-01T07:49:06;18.60;66.30
13798;DHT22;6970;51.340;3.240;2023-03-01T07:51:34;19.30;65.30
13798;DHT22;6970;51.340;3.240;2023-03-01T07:54:01;19.70;62.10
13798;DHT22;6970;51.340;3.240;2023-03-01T07:56:28;20.00;60.00
13798;DHT22;6970;51.340;3.240;2023-03-01T07:58:56;20.20;58.40
13798;DHT22;6970;51.340;3.240;2023-03-01T08:01:23;20.50;58.20
13798;DHT22;6970;51.340;3.240;2023-03-01T08:03:50;20.90;57.00
13798;DHT22;6970;51.340;3.240;2023-03-01T08:06:17;21.30;57.40
13798;DHT22;6970;51.340;3.240;2023-03-01T08:08:45;21.60;55.70
13798;DHT22;6970;51.340;3.240;2023-03-01T08:11:14;21.80;54.90
13798;DHT22;6970;51.340;3.240;2023-03-01T08:13:42;22.10;54.30
13798;DHT22;6970;51.340;3.240;2023-03-01T08:16:14;22.40;53.50
13798;DHT22;6970;51.340;3.240;2023-03-01T08:18:42;22.60;52.20
13798;DHT22;6970;51.340;3.240;2023-03-01T08:21:11;23.10;52.00
13798;DHT22;6970;51.340;3.240;2023-03-01T08:23:39;23.40;51.10
13798;DHT22;6970;51.340;3.240;2023-03-01T08:28:35;24.00;49.70
13798;DHT22;6970;51.340;3.240;2023-03-01T08:31:03;24.00;49.20
13798;DHT22;6970;51.340;3.240;2023-03-01T08:33:39;24.00;48.50
13798;DHT22;6970;51.340;3.240;2023-03-01T08:36:06;23.90;48.10
13798;DHT22;6970;51.340;3.240;2023-03-01T08:38:34;23.90;48.40
13798;DHT22;6970;51.340;3.240;2023-03-01T08:41:03;24.20;48.40
13798;DHT22;6970;51.340;3.240;2023-03-01T08:43:30;24.40;46.90
13798;DHT22;6970;51.340;3.240;2023-03-01T08:45:57;24.30;46.80
13798;DHT22;6970;51.340;3.240;2023-03-01T08:48:25;24.30;45.20
13798;DHT22;6970;51.340;3.240;2023-03-01T08:50:53;24.10;44.80
13798;DHT22;6970;51.340;3.240;2023-03-01T08:53:20;24.10;45.00
13798;DHT22;6970;51.340;3.240;2023-03-01T08:55:47;24.00;44.80
13798;DHT22;6970;51.340;3.240;2023-03-01T08:58:16;24.20;45.10
13798;DHT22;6970;51.340;3.240;2023-03-01T09:00:43;24.10;44.60
13798;DHT22;6970;51.340;3.240;2023-03-01T09:03:10;24.10;44.40
13798;DHT22;6970;51.340;3.240;2023-03-01T09:05:37;24.30;44.60
13798;DHT22;6970;51.340;3.240;2023-03-01T09:08:05;24.10;44.50
13798;DHT22;6970;51.340;3.240;2023-03-01T09:10:38;24.10;44.40
13798;DHT22;6970;51.340;3.240;2023-03-01T09:13:06;24.00;43.70
13798;DHT22;6970;51.340;3.240;2023-03-01T09:15:33;24.10;44.50
13798;DHT22;6970;51.340;3.240;2023-03-01T09:18:00;24.50;44.70
13798;DHT22;6970;51.340;3.240;2023-03-01T09:20:28;25.10;44.60
13798;DHT22;6970;51.340;3.240;2023-03-01T09:22:55;25.60;44.50
13798;DHT22;6970;51.340;3.240;2023-03-01T09:25:22;25.90;43.10
13798;DHT22;6970;51.340;3.240;2023-03-01T09:27:53;25.70;42.60
13798;DHT22;6970;51.340;3.240;2023-03-01T09:30:20;25.50;43.50
13798;DHT22;6970;51.340;3.240;2023-03-01T09:32:48;25.30;43.40
13798;DHT22;6970;51.340;3.240;2023-03-01T09:35:15;24.80;43.80
13798;DHT22;6970;51.340;3.240;2023-03-01T09:37:42;24.80;44.30
13798;DHT22;6970;51.340;3.240;2023-03-01T09:40:17;24.80;44.10
13798;DHT22;6970;51.340;3.240;2023-03-01T09:43:12;25.10;43.90
13798;DHT22;6970;51.340;3.240;2023-03-01T09:45:44;25.60;43.40
13798;DHT22;6970;51.340;3.240;2023-03-01T09:48:18;26.10;42.80
13798;DHT22;6970;51.340;3.240;2023-03-01T09:50:45;26.40;42.70
13798;DHT22;6970;51.340;3.240;2023-03-01T09:53:16;26.50;42.10
13798;DHT22;6970;51.340;3.240;2023-03-01T09:55:48;26.70;41.80
13798;DHT22;6970;51.340;3.240;2023-03-01T09:58:47;26.70;41.40
13798;DHT22;6970;51.340;3.240;2023-03-01T10:04:19;26.60;41.00
13798;DHT22;6970;51.340;3.240;2023-03-01T10:09:39;26.70;41.10
13798;DHT22;6970;51.340;3.240;2023-03-01T10:12:16;27.00;41.00
13798;DHT22;6970;51.340;3.240;2023-03-01T10:14:59;27.10;40.90
13798;DHT22;6970;51.340;3.240;2023-03-01T10:20:55;27.30;40.50
13798;DHT22;6970;51.340;3.240;2023-03-01T10:23:19;26.90;39.90
13798;DHT22;6970;51.340;3.240;2023-03-01T10:26:12;27.10;40.00
13798;DHT22;6970;51.340;3.240;2023-03-01T10:31:47;27.10;39.90
13798;DHT22;6970;51.340;3.240;2023-03-01T10:34:41;26.70;40.30
13798;DHT22;6970;51.340;3.240;2023-03-01T10:40:01;26.20;40.00
13798;DHT22;6970;51.340;3.240;2023-03-01T10:42:35;25.80;40.00
13798;DHT22;6970;51.340;3.240;2023-03-01T10:48:11;25.20;40.60
13798;DHT22;6970;51.340;3.240;2023-03-01T10:50:48;25.00;41.20
13798;DHT22;6970;51.340;3.240;2023-03-01T10:53:48;25.00;41.20
13798;DHT22;6970;51.340;3.240;2023-03-01T10:56:16;25.00;41.40
13798;DHT22;6970;51.340;3.240;2023-03-01T11:01:43;24.60;40.90
13798;DHT22;6970;51.340;3.240;2023-03-01T11:04:13;24.30;41.00
13798;DHT22;6970;51.340;3.240;2023-03-01T11:06:41;24.10;41.50
13798;DHT22;6970;51.340;3.240;2023-03-01T11:09:20;23.80;41.70
13798;DHT22;6970;51.340;3.240;2023-03-01T11:11:59;23.50;41.80
13798;DHT22;6970;51.340;3.240;2023-03-01T11:14:36;23.20;42.40
13798;DHT22;6970;51.340;3.240;2023-03-01T11:20:15;23.00;43.50
13798;DHT22;6970;51.340;3.240;2023-03-01T11:25:35;23.10;43.70
13798;DHT22;6970;51.340;3.240;2023-03-01T11:28:06;22.70;42.80
13798;DHT22;6970;51.340;3.240;2023-03-01T11:30:49;22.10;44.00
13798;DHT22;6970;51.340;3.240;2023-03-01T11:33:56;21.40;44.40
13798;DHT22;6970;51.340;3.240;2023-03-01T11:36:56;20.50;45.40
13798;DHT22;6970;51.340;3.240;2023-03-01T11:39:33;19.90;46.50
13798;DHT22;6970;51.340;3.240;2023-03-01T11:44:48;18.80;48.10
13798;DHT22;6970;51.340;3.240;2023-03-01T11:50:26;17.90;49.60
13798;DHT22;6970;51.340;3.240;2023-03-01T11:53:05;17.20;50.30
13798;DHT22;6970;51.340;3.240;2023-03-01T12:07:40;16.00;53.10
13798;DHT22;6970;51.340;3.240;2023-03-01T12:18:21;15.00;55.00
13798;DHT22;6970;51.340;3.240;2023-03-01T12:23:52;14.40;56.50
13798;DHT22;6970;51.340;3.240;2023-03-01T12:34:47;14.30;57.60
13798;DHT22;6970;51.340;3.240;2023-03-01T12:50:48;14.40;57.70
13798;DHT22;6970;51.340;3.240;2023-03-01T12:53:25;14.30;58.10
13798;DHT22;6970;51.340;3.240;2023-03-01T12:55:56;14.20;58.50
13798;DHT22;6970;51.340;3.240;2023-03-01T12:58:27;14.10;58.50
13798;DHT22;6970;51.340;3.240;2023-03-01T13:01:38;14.00;58.80
13798;DHT22;6970;51.340;3.240;2023-03-01T13:10:15;13.40;58.80
13798;DHT22;6970;51.340;3.240;2023-03-01T13:15:27;13.20;59.70
13798;DHT22;6970;51.340;3.240;2023-03-01T13:26:10;13.40;59.80
13798;DHT22;6970;51.340;3.240;2023-03-01T13:31:10;13.50;60.10
13798;DHT22;6970;51.340;3.240;2023-03-01T13:39:02;13.50;60.00
13798;DHT22;6970;51.340;3.240;2023-03-01T13:44:28;13.00;61.20
13798;DHT22;6970;51.340;3.240;2023-03-01T13:46:59;12.80;61.90
13798;DHT22;6970;51.340;3.240;2023-03-01T13:49:41;12.70;62.60
13798;DHT22;6970;51.340;3.240;2023-03-01T13:54:57;12.60;63.60
13798;DHT22;6970;51.340;3.240;2023-03-01T13:57:32;12.70;64.10
13798;DHT22;6970;51.340;3.240;2023-03-01T13:59:59;12.60;63.70
13798;DHT22;6970;51.340;3.240;2023-03-01T14:02:27;12.60;63.70
13798;DHT22;6970;51.340;3.240;2023-03-01T14:04:58;12.70;64.30
13798;DHT22;6970;51.340;3.240;2023-03-01T14:07:27;12.60;63.70
13798;DHT22;6970;51.340;3.240;2023-03-01T14:09:59;12.40;64.40
13798;DHT22;6970;51.340;3.240;2023-03-01T14:15:50;12.20;65.90
13798;DHT22;6970;51.340;3.240;2023-03-01T14:18:29;12.20;66.90
13798;DHT22;6970;51.340;3.240;2023-03-01T14:21:01;12.20;66.20
13798;DHT22;6970;51.340;3.240;2023-03-01T14:23:33;12.30;66.30
13798;DHT22;6970;51.340;3.240;2023-03-01T14:26:02;12.30;66.50
13798;DHT22;6970;51.340;3.240;2023-03-01T14:28:31;12.10;65.90
13798;DHT22;6970;51.340;3.240;2023-03-01T14:31:36;12.10;66.40
13798;DHT22;6970;51.340;3.240;2023-03-01T14:34:23;12.00;67.00
13798;DHT22;6970;51.340;3.240;2023-03-01T14:36:51;12.00;67.20
13798;DHT22;6970;51.340;3.240;2023-03-01T14:39:25;12.10;67.10
13798;DHT22;6970;51.340;3.240;2023-03-01T14:41:53;12.00;66.70
13798;DHT22;6970;51.340;3.240;2023-03-01T14:44:23;12.00;67.00
13798;DHT22;6970;51.340;3.240;2023-03-01T14:46:55;11.90;67.10
13798;DHT22;6970;51.340;3.240;2023-03-01T14:49:27;11.90;66.80
13798;DHT22;6970;51.340;3.240;2023-03-01T14:52:03;11.80;72.50
13798;DHT22;6970;51.340;3.240;2023-03-01T14:54:46;11.70;75.00
13798;DHT22;6970;51.340;3.240;2023-03-01T14:57:20;11.60;72.30
13798;DHT22;6970;51.340;3.240;2023-03-01T14:59:57;11.60;74.60
13798;DHT22;6970;51.340;3.240;2023-03-01T15:02:26;11.50;77.00
13798;DHT22;6970;51.340;3.240;2023-03-01T15:05:02;11.40;78.30
13798;DHT22;6970;51.340;3.240;2023-03-01T15:07:38;11.40;77.90
13798;DHT22;6970;51.340;3.240;2023-03-01T15:10:14;11.30;77.90
13798;DHT22;6970;51.340;3.240;2023-03-01T15:12:42;11.20;78.60
13798;DHT22;6970;51.340;3.240;2023-03-01T15:15:26;11.10;79.70
13798;DHT22;6970;51.340;3.240;2023-03-01T15:17:58;11.00;81.00
13798;DHT22;6970;51.340;3.240;2023-03-01T15:20:27;10.90;80.70
13798;DHT22;6970;51.340;3.240;2023-03-01T15:22:56;10.80;81.40
13798;DHT22;6970;51.340;3.240;2023-03-01T15:25:28;10.80;82.10
13798;DHT22;6970;51.340;3.240;2023-03-01T15:27:57;10.70;82.40
13798;DHT22;6970;51.340;3.240;2023-03-01T15:30:29;10.70;82.90
13798;DHT22;6970;51.340;3.240;2023-03-01T15:35:50;10.40;84.70
13798;DHT22;6970;51.340;3.240;2023-03-01T15:41:01;10.20;85.70
13798;DHT22;6970;51.340;3.240;2023-03-01T15:43:46;10.10;86.60
13798;DHT22;6970;51.340;3.240;2023-03-01T15:48:52;10.00;87.50
13798;DHT22;6970;51.340;3.240;2023-03-01T15:51:44;10.00;84.70
13798;DHT22;6970;51.340;3.240;2023-03-01T15:54:19;9.90;81.10
13798;DHT22;6970;51.340;3.240;2023-03-01T15:56:47;9.90;83.80
13798;DHT22;6970;51.340;3.240;2023-03-01T15:59:14;9.90;86.90
13798;DHT22;6970;51.340;3.240;2023-03-01T16:01:42;9.80;88.90
13798;DHT22;6970;51.340;3.240;2023-03-01T16:04:13;9.70;90.20
13798;DHT22;6970;51.340;3.240;2023-03-01T16:06:47;9.60;90.60
13798;DHT22;6970;51.340;3.240;2023-03-01T16:09:25;9.60;90.30
13798;DHT22;6970;51.340;3.240;2023-03-01T16:11:53;9.60;90.60
13798;DHT22;6970;51.340;3.240;2023-03-01T16:14:20;9.50;91.10
13798;DHT22;6970;51.340;3.240;2023-03-01T16:16:48;9.40;91.10
13798;DHT22;6970;51.340;3.240;2023-03-01T16:19:17;9.30;91.00
13798;DHT22;6970;51.340;3.240;2023-03-01T16:21:44;9.20;91.40
13798;DHT22;6970;51.340;3.240;2023-03-01T16:24:14;9.20;92.00
13798;DHT22;6970;51.340;3.240;2023-03-01T16:26:41;9.10;90.60
13798;DHT22;6970;51.340;3.240;2023-03-01T16:29:09;9.00;90.60
13798;DHT22;6970;51.340;3.240;2023-03-01T16:31:36;8.90;91.30
13798;DHT22;6970;51.340;3.240;2023-03-01T16:34:03;8.80;91.80
13798;DHT22;6970;51.340;3.240;2023-03-01T16:36:30;8.80;92.10
13798;DHT22;6970;51.340;3.240;2023-03-01T16:39:00;8.80;92.30
13798;DHT22;6970;51.340;3.240;2023-03-01T16:41:28;8.70;92.10
13798;DHT22;6970;51.340;3.240;2023-03-01T16:43:55;8.70;92.30
13798;DHT22;6970;51.340;3.240;2023-03-01T16:46:27;8.60;92.30
13798;DHT22;6970;51.340;3.240;2023-03-01T16:48:57;8.50;92.00
13798;DHT22;6970;51.340;3.240;2023-03-01T16:51:24;8.40;91.40
13798;DHT22;6970;51.340;3.240;2023-03-01T16:53:51;8.30;91.40
13798;DHT22;6970;51.340;3.240;2023-03-01T16:56:19;8.30;91.90
13798;DHT22;6970;51.340;3.240;2023-03-01T16:58:46;8.20;92.50
13798;DHT22;6970;51.340;3.240;2023-03-01T17:01:14;8.20;92.60
13798;DHT22;6970;51.340;3.240;2023-03-01T17:03:43;8.10;92.90
13798;DHT22;6970;51.340;3.240;2023-03-01T17:06:13;8.10;93.20
13798;DHT22;6970;51.340;3.240;2023-03-01T17:08:41;8.00;93.20
13798;DHT22;6970;51.340;3.240;2023-03-01T17:11:14;7.90;92.70
13798;DHT22;6970;51.340;3.240;2023-03-01T17:13:42;7.80;91.30
13798;DHT22;6970;51.340;3.240;2023-03-01T17:16:14;7.80;90.80
13798;DHT22;6970;51.340;3.240;2023-03-01T17:18:41;7.70;90.30
13798;DHT22;6970;51.340;3.240;2023-03-01T17:21:09;7.60;90.40
13798;DHT22;6970;51.340;3.240;2023-03-01T17:23:38;7.50;90.20
13798;DHT22;6970;51.340;3.240;2023-03-01T17:26:06;7.50;90.10
13798;DHT22;6970;51.340;3.240;2023-03-01T17:28:35;7.50;90.10
13798;DHT22;6970;51.340;3.240;2023-03-01T17:31:04;7.40;89.50
13798;DHT22;6970;51.340;3.240;2023-03-01T17:33:32;7.30;89.20
13798;DHT22;6970;51.340;3.240;2023-03-01T17:35:59;7.30;89.50
13798;DHT22;6970;51.340;3.240;2023-03-01T17:38:27;7.20;89.40
13798;DHT22;6970;51.340;3.240;2023-03-01T17:40:58;7.20;89.40
13798;DHT22;6970;51.340;3.240;2023-03-01T17:43:26;7.20;89.60
13798;DHT22;6970;51.340;3.240;2023-03-01T17:45:53;7.10;89.40
13798;DHT22;6970;51.340;3.240;2023-03-01T17:48:20;7.10;90.00
13798;DHT22;6970;51.340;3.240;2023-03-01T17:50:47;7.10;90.40
13798;DHT22;6970;51.340;3.240;2023-03-01T17:53:15;7.00;90.50
13798;DHT22;6970;51.340;3.240;2023-03-01T17:55:43;7.00;90.70
13798;DHT22;6970;51.340;3.240;2023-03-01T17:58:14;7.00;90.80
13798;DHT22;6970;51.340;3.240;2023-03-01T18:00:41;7.00;91.10
13798;DHT22;6970;51.340;3.240;2023-03-01T18:03:09;6.90;91.40
13798;DHT22;6970;51.340;3.240;2023-03-01T18:05:36;6.90;91.40
13798;DHT22;6970;51.340;3.240;2023-03-01T18:08:04;6.90;91.60
13798;DHT22;6970;51.340;3.240;2023-03-01T18:10:31;6.90;91.80
13798;DHT22;6970;51.340;3.240;2023-03-01T18:12:59;6.90;91.90
13798;DHT22;6970;51.340;3.240;2023-03-01T18:15:26;6.90;92.10
13798;DHT22;6970;51.340;3.240;2023-03-01T18:17:53;6.80;92.50
13798;DHT22;6970;51.340;3.240;2023-03-01T18:20:20;6.80;92.30
13798;DHT22;6970;51.340;3.240;2023-03-01T18:22:47;6.80;92.50
13798;DHT22;6970;51.340;3.240;2023-03-01T18:25:16;6.80;92.60